Marco Polo — C6JZ7 — position and weather

sailwx.info

Track history (hours):
 
Tides and Currents Weather Stations Pressure Air Temp Water Temp Dewpoint Dewpoint Depression Visibility Wind Speed Wind Dir Waves Ship Positions

Marco Polo

Operator: Orient Lines

Last reported at 2016-Jul-27 11:33 UTC. Time now 2016-Jul-27 11:39 UTC.
Position N 54°27' E 012°10'.

Type: Ship. MMSI: 308691456.

Date/timePositionNaut miles runAvg speedWind from/ knotsBaromVisibWave heightAir tempDewpointWater temp
2016-Jul-27 11:33N 54°27' E 012°10'6615.8
2016-Jul-27 07:23N 55°01' E 013°48'1315.9
2016-Jul-27 06:33N 55°08' E 014°07'1616.0
2016-Jul-27 05:33N 55°19' E 014°27'1616.0
2016-Jul-27 04:33N 55°30' E 014°47'1616.4
2016-Jul-27 03:33N 55°39' E 015°12'19015.5
2016-Jul-26 15:20N 58°29' E 017°49'126 6.6
2016-Jul-25 20:12N 59°14' E 021°36'1015.1
2016-Jul-25 19:33N 59°16' E 021°54'1515.1
2016-Jul-25 18:33N 59°18' E 022°24'3115.2
2016-Jul-25 16:29N 59°25' E 023°24'1415.3
2016-Jul-25 15:33N 59°27' E 023°51'1715.3
2016-Jul-25 14:25N 59°30' E 024°25'1012.1
2016-Jul-25 13:33N 59°29' E 024°46'2 0.3
2016-Jul-25 05:22N 59°27' E 024°46'1 1.1
2016-Jul-25 04:33N 59°28' E 024°46'1313.3
2016-Jul-25 03:33N 59°41' E 024°40'1514.9
2016-Jul-25 02:33N 59°51' E 025°03'1816.2
2016-Jul-25 01:25N 59°54' E 025°39'1416.6
2016-Jul-25 00:33N 59°58' E 026°06'1616.2
2016-Jul-24 23:34N 60°01' E 026°38'1615.9
2016-Jul-24 22:33N 60°02' E 027°10'1716.7
2016-Jul-24 21:33N 60°10' E 027°38'1515.5
2016-Jul-24 20:33N 60°09' E 028°09'1616.0
2016-Jul-24 19:33N 60°03' E 028°39'1515.4
2016-Jul-24 18:33N 60°02' E 029°10'1413.6
2016-Jul-24 17:33N 60°00' E 029°37'1211.7
2016-Jul-24 16:33N 59°56' E 029°59'7 6.6
2016-Jul-24 15:32N 59°57' E 030°12'0 0.0
2016-Jul-24 14:32N 59°57' E 030°12'0 0.0
2016-Jul-24 13:32N 59°57' E 030°12'0 0.0
2016-Jul-24 12:32N 59°57' E 030°12'0 0.0
2016-Jul-24 11:32N 59°57' E 030°12'0 0.0
2016-Jul-24 10:32N 59°57' E 030°12'0 0.0
2016-Jul-24 09:32N 59°57' E 030°12'0 0.0
2016-Jul-24 08:32N 59°57' E 030°12'0 0.0
2016-Jul-24 07:32N 59°57' E 030°12'0 0.0
2016-Jul-24 06:32N 59°57' E 030°12'0 0.0
2016-Jul-24 05:32N 59°57' E 030°12'0 0.0
2016-Jul-24 04:32N 59°57' E 030°12'0 0.0
2016-Jul-24 03:32N 59°57' E 030°12'0 0.0
2016-Jul-24 02:32N 59°57' E 030°12'0 0.0
2016-Jul-24 01:32N 59°57' E 030°12'0 0.0
2016-Jul-24 00:32N 59°57' E 030°12'0 0.0
2016-Jul-23 23:32N 59°57' E 030°12'0 0.0
2016-Jul-23 22:32N 59°57' E 030°12'0 0.0
2016-Jul-23 21:32N 59°57' E 030°12'0 0.0
2016-Jul-23 20:32N 59°57' E 030°12'0 0.0
2016-Jul-23 19:32N 59°57' E 030°12'0 0.0
2016-Jul-23 18:29N 59°57' E 030°12'0 0.0
2016-Jul-23 17:32N 59°57' E 030°12'0 0.0
2016-Jul-23 16:32N 59°57' E 030°12'0 0.0
2016-Jul-23 15:32N 59°57' E 030°12'0 0.0
2016-Jul-23 14:32N 59°57' E 030°12'0 0.0
2016-Jul-23 13:32N 59°57' E 030°12'0 0.0
2016-Jul-23 12:32N 59°57' E 030°12'0 0.0
2016-Jul-23 11:32N 59°57' E 030°12'0 0.0
2016-Jul-23 10:32N 59°57' E 030°12'0 0.0
2016-Jul-23 09:32N 59°57' E 030°12'0 0.0
2016-Jul-23 08:32N 59°57' E 030°12'0 0.0
2016-Jul-23 07:32N 59°57' E 030°12'0 0.0
2016-Jul-23 06:32N 59°57' E 030°12'0 0.0
2016-Jul-23 04:32N 59°57' E 030°12'0 0.3
2016-Jul-23 03:33N 59°57' E 030°11'8 8.5
2016-Jul-23 02:33N 59°56' E 029°54'3311.0
2016-Jul-22 23:33N 60°02' E 028°49'1413.8
2016-Jul-22 22:33N 60°04' E 028°22'1413.9
2016-Jul-22 21:33N 60°10' E 027°56'1413.6
2016-Jul-22 20:33N 60°06' E 027°30'1514.5
2016-Jul-22 19:31N 59°58' E 027°04'1414.6
2016-Jul-22 18:33N 59°59' E 026°36'59 4.2
2016-Jul-22 04:26N 59°48' E 024°40'1214.1
2016-Jul-22 03:33N 59°42' E 024°18'1616.4
2016-Jul-22 02:33N 59°37' E 023°47'32216.1
2016-Jul-21 06:33N 55°56' E 016°27'1616.4
2016-Jul-21 05:33N 55°49' E 016°01'1716.7
2016-Jul-21 04:34N 55°41' E 015°35'1716.6
2016-Jul-21 03:33N 55°33' E 015°09'1716.8
2016-Jul-21 02:33N 55°25' E 014°44'1616.5
2016-Jul-21 01:34N 55°13' E 014°23'1616.4
2016-Jul-21 00:34N 55°00' E 014°05'1616.3
2016-Jul-20 23:33N 54°55' E 013°38'1716.8
2016-Jul-20 22:34N 54°50' E 013°10'1616.1
2016-Jul-20 21:33N 54°45' E 012°44'1616.1
2016-Jul-20 20:33N 54°36' E 012°21'1615.6
2016-Jul-20 19:33N 54°22' E 012°07'1212.3
2016-Jul-20 18:33N 54°10' E 012°06'1 0.8
2016-Jul-20 17:32N 54°09' E 012°06'0 0.0
2016-Jul-20 16:32N 54°09' E 012°06'0 0.0
2016-Jul-20 15:29N 54°09' E 012°06'0 0.0
2016-Jul-20 14:29N 54°09' E 012°06'0 0.0
2016-Jul-20 13:32N 54°09' E 012°06'0 0.0
2016-Jul-20 12:32N 54°09' E 012°06'0 0.0
2016-Jul-20 10:32N 54°09' E 012°06'0 0.0
2016-Jul-20 09:32N 54°09' E 012°06'0 0.0
2016-Jul-20 08:14N 54°09' E 012°06'0 0.0
2016-Jul-20 07:32N 54°09' E 012°06'0 0.0
2016-Jul-20 06:29N 54°09' E 012°06'0 0.0
2016-Jul-20 05:23N 54°09' E 012°06'0 0.0
2016-Jul-20 04:32N 54°09' E 012°06'1 1.0
2016-Jul-20 03:31N 54°10' E 012°06'10 9.9
2016-Jul-20 02:33N 54°17' E 011°55'1515.0
2016-Jul-20 01:33N 54°26' E 011°35'1515.0
2016-Jul-20 00:33N 54°34' E 011°13'1514.7
2016-Jul-19 23:33N 54°42' E 010°52'1313.4
2016-Jul-19 22:33N 54°56' E 010°54'1414.0
2016-Jul-19 21:33N 55°09' E 011°03'1412.2
2016-Jul-19 20:26N 55°22' E 011°01'3913.2
2016-Jul-19 17:29N 56°01' E 011°04'1914.0
2016-Jul-19 16:07N 56°08' E 011°36'915.2
2016-Jul-19 15:33N 56°10' E 011°51'1515.1
2016-Jul-19 14:33N 56°11' E 012°18'1515.0
2016-Jul-19 13:33N 56°02' E 012°40'1414.5
2016-Jul-19 12:33N 55°48' E 012°43'7 6.8
2016-Jul-19 11:32N 55°42' E 012°36'0 0.0
2016-Jul-19 10:32N 55°42' E 012°36'0 0.0
2016-Jul-19 09:32N 55°42' E 012°36'0 0.0
2016-Jul-19 08:32N 55°42' E 012°36'0 0.0
2016-Jul-19 07:32N 55°42' E 012°36'0 0.0
2016-Jul-19 04:34N 55°42' E 012°36'8 7.8
2016-Jul-19 03:34N 55°49' E 012°42'1211.5
2016-Jul-19 02:34N 56°01' E 012°40'1211.7
2016-Jul-19 01:34N 56°09' E 012°25'2411.9
2016-Jul-18 23:34N 56°28' E 011°59'1313.2
2016-Jul-18 22:34N 56°41' E 011°53'1313.0
2016-Jul-18 21:34N 56°53' E 011°47'1413.6
2016-Jul-18 20:34N 57°06' E 011°38'1414.4
2016-Jul-18 19:33N 57°20' E 011°29'1413.9
2016-Jul-18 18:33N 57°32' E 011°16'1414.3
2016-Jul-18 17:33N 57°41' E 010°56'1413.9
2016-Jul-18 16:31N 57°47' E 010°32'41516.6
2016-Jul-17 15:34N 56°12' W 001°49'1716.9
2016-Jul-17 14:33N 56°09' W 002°18'1717.1
2016-Jul-17 13:34N 56°06' W 002°49'1414.0
2016-Jul-17 12:34N 56°00' W 003°12'1 1.2
2016-Jul-17 11:33N 55°59' W 003°11'  
Track history (hours):
 
Tides and Currents Weather Stations Pressure Air Temp Water Temp Dewpoint Dewpoint Depression Visibility Wind Speed Wind Dir Waves Ship Positions

Marco Polo

Operator: Orient Lines

Last reported at 2016-Jul-27 11:33 UTC. Time now 2016-Jul-27 11:39 UTC.
Position N 54°27' E 012°10'.

Type: Ship. MMSI: 308691456.

Date/timePositionNaut miles runAvg speedWind from/ knotsBaromVisibWave heightAir tempDewpointWater temp
2016-Jul-27 11:33N 54°27' E 012°10'6615.8
2016-Jul-27 07:23N 55°01' E 013°48'1315.9
2016-Jul-27 06:33N 55°08' E 014°07'1616.0
2016-Jul-27 05:33N 55°19' E 014°27'1616.0
2016-Jul-27 04:33N 55°30' E 014°47'1616.4
2016-Jul-27 03:33N 55°39' E 015°12'19015.5
2016-Jul-26 15:20N 58°29' E 017°49'126 6.6
2016-Jul-25 20:12N 59°14' E 021°36'1015.1
2016-Jul-25 19:33N 59°16' E 021°54'1515.1
2016-Jul-25 18:33N 59°18' E 022°24'3115.2
2016-Jul-25 16:29N 59°25' E 023°24'1415.3
2016-Jul-25 15:33N 59°27' E 023°51'1715.3
2016-Jul-25 14:25N 59°30' E 024°25'1012.1
2016-Jul-25 13:33N 59°29' E 024°46'2 0.3
2016-Jul-25 05:22N 59°27' E 024°46'1 1.1
2016-Jul-25 04:33N 59°28' E 024°46'1313.3
2016-Jul-25 03:33N 59°41' E 024°40'1514.9
2016-Jul-25 02:33N 59°51' E 025°03'1816.2
2016-Jul-25 01:25N 59°54' E 025°39'1416.6
2016-Jul-25 00:33N 59°58' E 026°06'1616.2
2016-Jul-24 23:34N 60°01' E 026°38'1615.9
2016-Jul-24 22:33N 60°02' E 027°10'1716.7
2016-Jul-24 21:33N 60°10' E 027°38'1515.5
2016-Jul-24 20:33N 60°09' E 028°09'1616.0
2016-Jul-24 19:33N 60°03' E 028°39'1515.4
2016-Jul-24 18:33N 60°02' E 029°10'1413.6
2016-Jul-24 17:33N 60°00' E 029°37'1211.7
2016-Jul-24 16:33N 59°56' E 029°59'7 6.6
2016-Jul-24 15:32N 59°57' E 030°12'0 0.0
2016-Jul-24 14:32N 59°57' E 030°12'0 0.0
2016-Jul-24 13:32N 59°57' E 030°12'0 0.0
2016-Jul-24 12:32N 59°57' E 030°12'0 0.0
2016-Jul-24 11:32N 59°57' E 030°12'0 0.0
2016-Jul-24 10:32N 59°57' E 030°12'0 0.0
2016-Jul-24 09:32N 59°57' E 030°12'0 0.0
2016-Jul-24 08:32N 59°57' E 030°12'0 0.0
2016-Jul-24 07:32N 59°57' E 030°12'0 0.0
2016-Jul-24 06:32N 59°57' E 030°12'0 0.0
2016-Jul-24 05:32N 59°57' E 030°12'0 0.0
2016-Jul-24 04:32N 59°57' E 030°12'0 0.0
2016-Jul-24 03:32N 59°57' E 030°12'0 0.0
2016-Jul-24 02:32N 59°57' E 030°12'0 0.0
2016-Jul-24 01:32N 59°57' E 030°12'0 0.0
2016-Jul-24 00:32N 59°57' E 030°12'0 0.0
2016-Jul-23 23:32N 59°57' E 030°12'0 0.0
2016-Jul-23 22:32N 59°57' E 030°12'0 0.0
2016-Jul-23 21:32N 59°57' E 030°12'0 0.0
2016-Jul-23 20:32N 59°57' E 030°12'0 0.0
2016-Jul-23 19:32N 59°57' E 030°12'0 0.0
2016-Jul-23 18:29N 59°57' E 030°12'0 0.0
2016-Jul-23 17:32N 59°57' E 030°12'0 0.0
2016-Jul-23 16:32N 59°57' E 030°12'0 0.0
2016-Jul-23 15:32N 59°57' E 030°12'0 0.0
2016-Jul-23 14:32N 59°57' E 030°12'0 0.0
2016-Jul-23 13:32N 59°57' E 030°12'0 0.0
2016-Jul-23 12:32N 59°57' E 030°12'0 0.0
2016-Jul-23 11:32N 59°57' E 030°12'0 0.0
2016-Jul-23 10:32N 59°57' E 030°12'0 0.0
2016-Jul-23 09:32N 59°57' E 030°12'0 0.0
2016-Jul-23 08:32N 59°57' E 030°12'0 0.0
2016-Jul-23 07:32N 59°57' E 030°12'0 0.0
2016-Jul-23 06:32N 59°57' E 030°12'0 0.0
2016-Jul-23 04:32N 59°57' E 030°12'0 0.3
2016-Jul-23 03:33N 59°57' E 030°11'8 8.5
2016-Jul-23 02:33N 59°56' E 029°54'3311.0
2016-Jul-22 23:33N 60°02' E 028°49'1413.8
2016-Jul-22 22:33N 60°04' E 028°22'1413.9
2016-Jul-22 21:33N 60°10' E 027°56'1413.6
2016-Jul-22 20:33N 60°06' E 027°30'1514.5
2016-Jul-22 19:31N 59°58' E 027°04'1414.6
2016-Jul-22 18:33N 59°59' E 026°36'59 4.2
2016-Jul-22 04:26N 59°48' E 024°40'1214.1
2016-Jul-22 03:33N 59°42' E 024°18'1616.4
2016-Jul-22 02:33N 59°37' E 023°47'32216.1
2016-Jul-21 06:33N 55°56' E 016°27'1616.4
2016-Jul-21 05:33N 55°49' E 016°01'1716.7
2016-Jul-21 04:34N 55°41' E 015°35'1716.6
2016-Jul-21 03:33N 55°33' E 015°09'1716.8
2016-Jul-21 02:33N 55°25' E 014°44'1616.5
2016-Jul-21 01:34N 55°13' E 014°23'1616.4
2016-Jul-21 00:34N 55°00' E 014°05'1616.3
2016-Jul-20 23:33N 54°55' E 013°38'1716.8
2016-Jul-20 22:34N 54°50' E 013°10'1616.1
2016-Jul-20 21:33N 54°45' E 012°44'1616.1
2016-Jul-20 20:33N 54°36' E 012°21'1615.6
2016-Jul-20 19:33N 54°22' E 012°07'1212.3
2016-Jul-20 18:33N 54°10' E 012°06'1 0.8
2016-Jul-20 17:32N 54°09' E 012°06'0 0.0
2016-Jul-20 16:32N 54°09' E 012°06'0 0.0
2016-Jul-20 15:29N 54°09' E 012°06'0 0.0
2016-Jul-20 14:29N 54°09' E 012°06'0 0.0
2016-Jul-20 13:32N 54°09' E 012°06'0 0.0
2016-Jul-20 12:32N 54°09' E 012°06'0 0.0
2016-Jul-20 10:32N 54°09' E 012°06'0 0.0
2016-Jul-20 09:32N 54°09' E 012°06'0 0.0
2016-Jul-20 08:14N 54°09' E 012°06'0 0.0
2016-Jul-20 07:32N 54°09' E 012°06'0 0.0
2016-Jul-20 06:29N 54°09' E 012°06'0 0.0
2016-Jul-20 05:23N 54°09' E 012°06'0 0.0
2016-Jul-20 04:32N 54°09' E 012°06'1 1.0
2016-Jul-20 03:31N 54°10' E 012°06'10 9.9
2016-Jul-20 02:33N 54°17' E 011°55'1515.0
2016-Jul-20 01:33N 54°26' E 011°35'1515.0
2016-Jul-20 00:33N 54°34' E 011°13'1514.7
2016-Jul-19 23:33N 54°42' E 010°52'1313.4
2016-Jul-19 22:33N 54°56' E 010°54'1414.0
2016-Jul-19 21:33N 55°09' E 011°03'1412.2
2016-Jul-19 20:26N 55°22' E 011°01'3913.2
2016-Jul-19 17:29N 56°01' E 011°04'1914.0
2016-Jul-19 16:07N 56°08' E 011°36'915.2
2016-Jul-19 15:33N 56°10' E 011°51'1515.1
2016-Jul-19 14:33N 56°11' E 012°18'1515.0
2016-Jul-19 13:33N 56°02' E 012°40'1414.5
2016-Jul-19 12:33N 55°48' E 012°43'7 6.8
2016-Jul-19 11:32N 55°42' E 012°36'0 0.0
2016-Jul-19 10:32N 55°42' E 012°36'0 0.0
2016-Jul-19 09:32N 55°42' E 012°36'0 0.0
2016-Jul-19 08:32N 55°42' E 012°36'0 0.0
2016-Jul-19 07:32N 55°42' E 012°36'0 0.0
2016-Jul-19 04:34N 55°42' E 012°36'8 7.8
2016-Jul-19 03:34N 55°49' E 012°42'1211.5
2016-Jul-19 02:34N 56°01' E 012°40'1211.7
2016-Jul-19 01:34N 56°09' E 012°25'2411.9
2016-Jul-18 23:34N 56°28' E 011°59'1313.2
2016-Jul-18 22:34N 56°41' E 011°53'1313.0
2016-Jul-18 21:34N 56°53' E 011°47'1413.6
2016-Jul-18 20:34N 57°06' E 011°38'1414.4
2016-Jul-18 19:33N 57°20' E 011°29'1413.9
2016-Jul-18 18:33N 57°32' E 011°16'1414.3
2016-Jul-18 17:33N 57°41' E 010°56'1413.9
2016-Jul-18 16:31N 57°47' E 010°32'41516.6
2016-Jul-17 15:34N 56°12' W 001°49'1716.9
2016-Jul-17 14:33N 56°09' W 002°18'1717.1
2016-Jul-17 13:34N 56°06' W 002°49'1414.0
2016-Jul-17 12:34N 56°00' W 003°12'1 1.2
2016-Jul-17 11:33N 55°59' W 003°11'  

Dump ship's entire track history